createdAt,value
2022-09-14T00:01:47.862Z,5.78
2022-09-14T00:04:08.256Z,5.63
2022-09-14T00:06:15.657Z,5.30
2022-09-14T00:08:19.074Z,5.25
2022-09-14T00:10:21.803Z,5.63
2022-09-14T00:12:27.802Z,5.22
2022-09-14T00:14:32.874Z,5.68
2022-09-14T00:16:42.004Z,6.22
2022-09-14T00:18:45.496Z,5.60
2022-09-14T00:20:48.664Z,5.80
2022-09-14T00:22:51.224Z,5.40
2022-09-14T00:24:53.920Z,5.60
2022-09-14T00:27:26.390Z,5.50
2022-09-14T00:29:31.605Z,5.63
2022-09-14T00:31:38.069Z,5.78
2022-09-14T00:33:48.124Z,5.63
2022-09-14T00:35:51.044Z,4.90
2022-09-14T00:37:53.805Z,5.20
2022-09-14T00:39:59.470Z,5.63
2022-09-14T00:42:06.249Z,5.18
2022-09-14T00:44:11.170Z,5.28
2022-09-14T00:46:18.947Z,5.28
2022-09-14T00:48:27.274Z,5.30
2022-09-14T00:50:29.874Z,5.65
2022-09-14T00:52:38.686Z,5.20
2022-09-14T00:54:49.796Z,5.78
2022-09-14T00:56:57.450Z,6.05
2022-09-14T00:59:07.282Z,5.53
2022-09-14T01:01:12.550Z,5.60
2022-09-14T01:03:16.995Z,5.50
2022-09-14T01:11:35.363Z,5.45
2022-09-14T01:14:04.176Z,6.03
2022-09-14T01:16:18.851Z,5.80
2022-09-14T01:18:39.913Z,5.30
2022-09-14T01:21:04.096Z,5.18
2022-09-14T01:23:43.755Z,5.50
2022-09-14T01:26:22.759Z,5.60
2022-09-14T01:28:50.955Z,5.45
2022-09-14T01:31:01.963Z,5.80
2022-09-14T01:33:22.763Z,5.90
2022-09-14T01:35:40.832Z,6.10
2022-09-14T01:38:05.734Z,6.18
2022-09-14T01:40:31.430Z,6.72
2022-09-14T01:42:42.847Z,6.07
2022-09-14T01:44:53.350Z,6.50
2022-09-14T01:47:13.637Z,6.40
2022-09-14T01:49:34.584Z,6.22
2022-09-14T01:52:13.363Z,6.77
2022-09-14T01:54:34.175Z,6.40
2022-09-14T01:56:54.146Z,6.07
2022-09-14T01:59:19.931Z,6.53
2022-09-14T02:01:33.335Z,6.75
2022-09-14T02:03:53.266Z,6.95
2022-09-14T02:06:42.924Z,7.50
2022-09-14T02:08:51.980Z,7.15
2022-09-14T02:11:00.012Z,7.03
2022-09-14T02:13:05.334Z,7.50
2022-09-14T02:15:16.591Z,7.25
2022-09-14T02:17:22.977Z,7.35
2022-09-14T02:19:39.101Z,7.45
2022-09-14T02:21:45.127Z,7.20
2022-09-14T02:23:56.822Z,7.80
2022-09-14T02:26:39.968Z,8.07
2022-09-14T02:28:58.358Z,7.50
2022-09-14T02:31:26.511Z,7.60
2022-09-14T02:37:04.574Z,7.97
2022-09-14T02:45:47.675Z,7.93
2022-09-14T02:48:01.824Z,7.28
2022-09-14T02:50:17.319Z,7.53
2022-09-14T02:52:42.087Z,7.45
2022-09-14T02:57:01.910Z,7.22
2022-09-14T02:59:05.293Z,7.40
2022-09-14T03:01:16.291Z,7.10
2022-09-14T03:03:21.688Z,7.35
2022-09-14T03:05:27.485Z,7.13
2022-09-14T03:21:28.835Z,7.60
2022-09-14T03:48:48.237Z,6.93
2022-09-14T03:52:13.067Z,6.82
2022-09-14T05:20:08.232Z,7.50
2022-09-14T05:22:14.039Z,7.72
2022-09-14T05:33:41.119Z,8.35
2022-09-14T05:36:01.754Z,7.85
2022-09-14T05:38:08.490Z,7.93
2022-09-14T05:42:50.433Z,8.18
2022-09-14T05:47:06.864Z,7.68
2022-09-14T05:49:27.256Z,8.07
2022-09-14T05:51:39.550Z,8.23
2022-09-14T05:55:50.306Z,8.02
2022-09-14T05:57:55.848Z,7.70
2022-09-14T06:00:12.984Z,8.50
2022-09-14T06:02:31.874Z,8.38
2022-09-14T06:04:39.945Z,8.30
2022-09-14T06:09:16.713Z,8.20
2022-09-14T06:11:29.931Z,7.85
2022-09-14T06:13:33.016Z,7.95
2022-09-14T06:18:14.956Z,8.35
2022-09-14T06:20:18.661Z,7.90
2022-09-14T06:22:24.547Z,7.90
2022-09-14T06:24:27.470Z,8.45
2022-09-14T06:26:33.970Z,7.90
2022-09-14T06:28:37.690Z,7.88
2022-09-14T06:30:44.325Z,8.18
2022-09-14T06:32:47.160Z,7.95
2022-09-14T06:34:55.622Z,7.65
2022-09-14T06:36:58.152Z,8.18
2022-09-14T06:39:01.458Z,8.40
2022-09-14T06:41:17.781Z,8.30
2022-09-14T06:43:22.947Z,8.15
2022-09-14T06:45:27.067Z,8.20
2022-09-14T06:47:36.645Z,8.45
2022-09-14T06:49:39.349Z,8.40
2022-09-14T06:51:45.379Z,8.45
2022-09-14T06:53:49.782Z,8.18
2022-09-14T06:55:53.940Z,8.38
2022-09-14T06:57:59.613Z,8.10
2022-09-14T07:05:02.220Z,8.25
2022-09-14T07:07:06.838Z,8.52
2022-09-14T07:09:09.412Z,8.68
2022-09-14T07:11:14.550Z,8.32
2022-09-14T07:13:17.273Z,8.00
2022-09-14T07:15:21.687Z,8.50
2022-09-14T07:17:24.171Z,8.07
2022-09-14T07:19:26.543Z,8.57
2022-09-14T07:21:30.328Z,7.78
2022-09-14T07:23:33.583Z,7.97
2022-09-14T07:25:38.966Z,6.93
2022-09-14T07:27:44.320Z,7.78
2022-09-14T07:29:47.782Z,6.93
2022-09-14T07:31:53.058Z,6.95
2022-09-14T07:33:58.059Z,7.00
2022-09-14T07:36:09.179Z,6.70
2022-09-14T07:38:11.651Z,6.60
2022-09-14T07:40:13.704Z,6.32
2022-09-14T07:42:16.070Z,6.07
2022-09-14T07:44:19.431Z,6.25
2022-09-14T07:46:22.648Z,5.85
2022-09-14T07:48:24.778Z,6.13
2022-09-14T07:50:30.323Z,5.88
2022-09-14T07:52:37.993Z,6.10
2022-09-14T07:54:42.023Z,5.72
2022-09-14T07:56:45.824Z,5.28
2022-09-14T07:59:03.345Z,5.88
2022-09-14T08:01:19.738Z,6.25
2022-09-14T08:03:23.350Z,6.00
2022-09-14T08:05:29.600Z,6.00
2022-09-14T08:07:31.999Z,5.50
2022-09-14T08:09:35.150Z,4.70
2022-09-14T08:11:38.663Z,5.00
2022-09-14T08:13:51.215Z,3.90
2022-09-14T08:15:55.270Z,3.60
2022-09-14T08:17:58.451Z,3.50
2022-09-14T08:20:01.067Z,3.08
2022-09-14T08:22:04.956Z,3.10
2022-09-14T08:24:14.157Z,3.53
2022-09-14T08:26:23.330Z,3.40
2022-09-14T08:28:28.683Z,3.20
2022-09-14T08:30:31.222Z,3.50
2022-09-14T08:32:33.865Z,3.63
2022-09-14T08:34:37.156Z,3.50
2022-09-14T08:37:04.847Z,3.58
2022-09-14T08:39:10.578Z,3.20
2022-09-14T08:41:30.255Z,3.38
2022-09-14T08:43:33.225Z,3.45
2022-09-14T08:45:35.768Z,3.72
2022-09-14T08:47:39.070Z,2.92
2022-09-14T08:50:18.675Z,3.13
2022-09-14T08:52:43.890Z,3.10
2022-09-14T08:54:50.448Z,2.92
2022-09-14T08:57:18.987Z,3.75
2022-09-14T08:59:58.523Z,3.05
2022-09-14T09:02:28.240Z,2.67
2022-09-14T09:04:42.962Z,2.42
2022-09-14T09:07:26.240Z,2.55
2022-09-14T09:09:48.378Z,2.70
2022-09-14T09:11:53.971Z,2.53
2022-09-14T09:13:58.219Z,3.13
2022-09-14T09:16:05.356Z,2.60
2022-09-14T09:18:13.644Z,2.72
2022-09-14T09:20:23.352Z,2.47
2022-09-14T09:22:31.392Z,3.15
2022-09-14T09:24:37.297Z,2.53
2022-09-14T09:26:39.544Z,2.60
2022-09-14T09:28:48.649Z,2.80
2022-09-14T09:30:59.064Z,2.58
2022-09-14T09:33:43.857Z,2.65
2022-09-14T09:35:55.178Z,3.00
2022-09-14T09:38:14.589Z,3.20
2022-09-14T09:45:08.557Z,2.72
2022-09-14T09:47:10.696Z,2.90
2022-09-14T09:49:22.494Z,2.95
2022-09-14T09:51:27.008Z,2.70
2022-09-14T09:53:29.797Z,2.70
2022-09-14T09:55:38.189Z,3.10
2022-09-14T09:57:40.402Z,3.03
2022-09-14T09:59:43.388Z,2.88
2022-09-14T10:01:46.095Z,3.00
2022-09-14T10:04:21.070Z,3.13
2022-09-14T10:06:23.467Z,3.08
2022-09-14T10:08:29.524Z,3.17
2022-09-14T10:10:34.759Z,2.67
2022-09-14T10:12:40.417Z,2.95
2022-09-14T10:14:43.255Z,2.40
2022-09-14T10:16:51.010Z,2.40
2022-09-14T10:18:54.021Z,2.70
2022-09-14T10:20:59.520Z,2.50
2022-09-14T10:23:20.241Z,2.50
2022-09-14T10:25:26.777Z,2.45
2022-09-14T10:27:38.698Z,2.33
2022-09-14T10:29:55.454Z,2.70
2022-09-14T10:32:21.932Z,2.40
2022-09-14T10:34:25.145Z,2.47
2022-09-14T10:36:33.762Z,2.60
2022-09-14T10:38:48.534Z,2.67
2022-09-14T10:41:10.451Z,2.00
2022-09-14T10:43:46.403Z,2.55
2022-09-14T10:45:59.426Z,2.50
2022-09-14T10:48:40.229Z,2.45
2022-09-14T10:51:01.879Z,2.30
2022-09-14T10:53:44.645Z,2.47
2022-09-14T10:56:20.284Z,2.65
2022-09-14T10:59:03.497Z,2.40
2022-09-14T11:01:46.412Z,2.90
2022-09-14T11:04:47.671Z,2.80
2022-09-14T11:08:04.397Z,2.67
2022-09-14T11:10:56.008Z,2.90
2022-09-14T11:14:10.535Z,2.80
2022-09-14T11:20:42.589Z,2.80
2022-09-14T11:23:03.675Z,2.95
2022-09-14T11:25:21.596Z,2.22
2022-09-14T11:27:45.473Z,2.60
2022-09-14T11:30:02.047Z,2.50
2022-09-14T11:32:21.327Z,2.40
2022-09-14T11:34:44.203Z,2.55
2022-09-14T11:36:55.624Z,2.47
2022-09-14T11:39:19.943Z,2.40
2022-09-14T11:41:41.796Z,2.50
2022-09-14T11:44:16.422Z,2.55
2022-09-14T11:46:37.237Z,2.80
2022-09-14T11:48:54.058Z,2.70
2022-09-14T11:51:09.697Z,2.88
2022-09-14T11:53:18.575Z,2.47
2022-09-14T11:55:21.763Z,2.60
2022-09-14T11:57:33.749Z,2.50
2022-09-14T11:59:44.384Z,2.75
2022-09-14T12:01:49.790Z,2.90
2022-09-14T12:04:15.996Z,3.08
2022-09-14T12:06:30.927Z,2.55
2022-09-14T12:08:33.421Z,2.70
2022-09-14T12:11:08.509Z,2.65
2022-09-14T12:13:14.873Z,2.88
2022-09-14T12:15:25.042Z,2.60
2022-09-14T17:04:22.575Z,6.18
2022-09-14T17:06:30.041Z,6.18
2022-09-14T17:19:56.605Z,5.43
2022-09-14T17:22:08.140Z,5.15
2022-09-14T17:24:29.345Z,4.97
2022-09-14T17:29:24.322Z,6.65
2022-09-14T17:31:44.817Z,6.45
2022-09-14T17:33:57.124Z,5.82
2022-09-14T17:36:11.108Z,5.30
2022-09-14T17:38:19.994Z,5.65
2022-09-14T17:40:25.674Z,5.03
2022-09-14T17:42:45.174Z,6.90
2022-09-14T17:45:05.918Z,7.20
2022-09-14T17:47:31.929Z,8.55
2022-09-14T17:49:40.179Z,7.15
2022-09-14T17:51:45.128Z,6.47
2022-09-14T17:59:39.611Z,6.97
2022-09-14T18:01:45.185Z,7.20
2022-09-14T18:03:57.464Z,8.90
2022-09-14T18:06:00.602Z,10.93
2022-09-14T18:08:05.947Z,11.43
2022-09-14T18:17:43.961Z,9.52
2022-09-14T18:19:54.480Z,9.68
2022-09-14T19:23:43.824Z,8.00
2022-09-14T19:25:49.156Z,7.32
2022-09-14T19:27:52.023Z,7.70
2022-09-14T19:29:56.479Z,8.02
2022-09-14T19:32:01.315Z,8.68
2022-09-14T19:34:22.515Z,8.02
2022-09-14T19:36:30.539Z,7.72
2022-09-14T19:38:49.687Z,6.95
2022-09-14T19:46:10.438Z,6.38
2022-09-14T19:48:29.593Z,7.65
2022-09-14T19:50:40.544Z,6.45
2022-09-14T19:53:26.629Z,7.05
2022-09-14T19:55:45.957Z,6.60
2022-09-14T19:58:00.671Z,6.93
2022-09-14T20:00:13.229Z,6.45
2022-09-14T20:09:49.623Z,6.78
2022-09-14T20:12:02.469Z,6.45
2022-09-14T20:14:18.909Z,6.70
2022-09-14T20:16:38.417Z,7.18
2022-09-14T20:19:11.027Z,7.07
2022-09-14T20:21:42.573Z,7.03
2022-09-14T20:24:23.428Z,6.63
2022-09-14T20:26:45.521Z,6.47
2022-09-14T20:29:19.655Z,6.63
2022-09-14T20:35:07.254Z,6.75
2022-09-14T20:40:25.043Z,6.22
2022-09-14T20:45:38.305Z,6.22
2022-09-14T20:47:44.216Z,6.35
2022-09-14T20:49:48.152Z,6.75
2022-09-14T20:52:26.657Z,7.20
2022-09-14T20:56:44.006Z,7.47
2022-09-14T20:58:51.726Z,7.63
2022-09-14T21:01:12.316Z,7.97
2022-09-14T21:03:16.074Z,7.90
2022-09-14T21:05:19.746Z,7.97
2022-09-14T21:07:22.389Z,7.95
2022-09-14T21:09:28.134Z,7.75
2022-09-14T21:11:31.064Z,7.82
2022-09-14T21:13:34.938Z,7.85
2022-09-14T21:15:37.417Z,7.28
2022-09-14T21:17:41.327Z,7.70
2022-09-14T21:19:43.629Z,8.07
2022-09-14T21:21:47.609Z,8.25
2022-09-14T21:24:16.558Z,8.32
2022-09-14T21:26:19.995Z,8.35
2022-09-14T21:28:22.393Z,8.50
2022-09-14T21:30:26.800Z,8.30
2022-09-14T21:39:21.083Z,8.55
2022-09-14T21:41:27.165Z,9.30
2022-09-14T21:43:29.590Z,8.98
2022-09-14T21:45:31.787Z,8.13
2022-09-14T21:47:34.530Z,8.95
2022-09-14T21:49:36.744Z,8.70
2022-09-14T21:51:39.026Z,9.38
2022-09-14T21:53:45.766Z,8.57
2022-09-14T21:55:47.993Z,8.88
2022-09-14T21:57:50.243Z,8.60
2022-09-14T21:59:52.916Z,8.43
2022-09-14T22:01:55.337Z,8.43
2022-09-14T22:03:58.746Z,8.23
2022-09-14T22:06:11.807Z,8.13
2022-09-14T22:08:14.211Z,8.07
2022-09-14T22:10:16.431Z,8.43
2022-09-14T22:12:19.885Z,8.18
2022-09-14T22:14:27.375Z,8.63
2022-09-14T22:16:32.719Z,9.27
2022-09-14T22:18:38.148Z,9.55
2022-09-14T22:20:41.519Z,9.93
2022-09-14T22:22:44.360Z,9.90
2022-09-14T22:24:47.038Z,9.75
2022-09-14T22:26:49.532Z,9.60
2022-09-14T22:28:53.274Z,9.55
2022-09-14T22:30:55.927Z,8.68
2022-09-14T22:32:58.615Z,9.18
2022-09-14T22:35:00.855Z,9.23
2022-09-14T22:37:03.607Z,8.68
2022-09-14T22:39:06.574Z,8.48
2022-09-14T22:41:12.997Z,8.68
2022-09-14T22:43:18.592Z,8.90
2022-09-14T22:45:21.278Z,8.65
2022-09-14T22:47:26.558Z,8.65
2022-09-14T22:49:31.360Z,9.00
2022-09-14T22:51:33.702Z,8.82
2022-09-14T22:53:36.546Z,7.93
2022-09-14T22:55:43.690Z,8.77
2022-09-14T22:57:45.912Z,8.48
2022-09-14T22:59:48.071Z,8.32
2022-09-14T23:01:50.756Z,8.05
2022-09-14T23:04:01.937Z,8.38
2022-09-14T23:06:05.281Z,8.87
2022-09-14T23:08:08.655Z,8.15
2022-09-14T23:10:10.910Z,6.63
2022-09-14T23:12:13.105Z,6.03
2022-09-14T23:14:16.834Z,5.80
2022-09-14T23:16:23.452Z,5.70
2022-09-14T23:18:25.578Z,5.70
2022-09-14T23:20:27.950Z,5.60
2022-09-14T23:22:30.063Z,5.50
2022-09-14T23:24:32.129Z,4.80
2022-09-14T23:26:34.524Z,4.50
2022-09-14T23:28:38.891Z,4.43
2022-09-14T23:30:40.988Z,4.50
2022-09-14T23:32:43.292Z,5.10
2022-09-14T23:36:47.454Z,4.82
2022-09-14T23:38:50.865Z,4.75
2022-09-14T23:40:53.168Z,4.78
2022-09-14T23:42:55.180Z,4.90
2022-09-14T23:44:57.912Z,5.22
2022-09-14T23:47:00.167Z,4.95
2022-09-14T23:49:02.207Z,5.10
2022-09-14T23:51:07.753Z,5.00
2022-09-14T23:53:09.935Z,5.40
2022-09-14T23:55:12.040Z,5.57
2022-09-14T23:57:14.462Z,5.20
2022-09-14T23:59:16.638Z,5.32
